Time;durP1;ratioP1;P1;durP2;ratioP2;P2;SDS_P1;SDS_P2;PMS_P1;PMS_P2;Temp;Humidity;BMP_temperature;BMP_pressure;BME280_temperature;BME280_humidity;BME280_pressure;Samples;Min_cycle;Max_cycle;Signal;HPM_P1;HPM_P2
2022/09/16 00:01:35;;;;;;;;;4.33;4.00;;;;;;;;5058008;28;45259;-70
2022/09/16 00:04:01;;;;;;;;;3.33;3.00;;;;;;;;5056555;28;45324;-69
2022/09/16 00:06:27;;;;;;;;;6.67;5.67;;;;;;;;5053025;28;45251;-69
2022/09/16 00:08:57;;;;;;;;;5.00;5.00;;;;;;;;5054527;28;45337;-69
2022/09/16 00:11:22;;;;;;;;;6.00;5.00;;;;;;;;5057524;28;45361;-70
2022/09/16 00:13:47;;;;;;;;;5.00;5.00;;;;;;;;5056252;28;45375;-70
2022/09/16 00:16:17;;;;;;;;;3.67;3.67;;;;;;;;5055323;28;45217;-69
2022/09/16 00:18:42;;;;;;;;;6.33;5.00;;;;;;;;5056267;28;45366;-70
2022/09/16 00:21:09;;;;;;;;;6.33;5.00;;;;;;;;5057837;28;46128;-69
2022/09/16 00:23:34;;;;;;;;;6.00;5.00;;;;;;;;5049162;28;45490;-70
2022/09/16 00:26:00;;;;;;;;;6.00;4.50;;;;;;;;5070094;28;45516;-69
2022/09/16 00:28:25;;;;;;;;;8.33;7.00;;;;;;;;5055298;28;45347;-70
2022/09/16 00:30:50;;;;;;;;;6.00;6.00;;;;;;;;5051432;28;46307;-69
2022/09/16 00:33:16;;;;;;;;;6.33;5.67;;;;;;;;5044551;28;45256;-69
2022/09/16 00:35:41;;;;;;;;;6.00;6.00;;;;;;;;5055763;28;45333;-69
2022/09/16 00:38:06;;;;;;;;;6.00;4.67;;;;;;;;5046559;28;45356;-69
2022/09/16 00:40:31;;;;;;;;;7.67;7.67;;;;;;;;5046603;28;45625;-69
2022/09/16 00:42:59;;;;;;;;;7.00;7.00;;;;;;;;5048087;28;45430;-69
2022/09/16 00:45:27;;;;;;;;;6.33;5.67;;;;;;;;5059100;28;45363;-69
2022/09/16 00:47:57;;;;;;;;;8.67;6.00;;;;;;;;5051348;28;45625;-69
2022/09/16 00:50:27;;;;;;;;;7.67;6.00;;;;;;;;5057481;28;46364;-69
2022/09/16 00:52:54;;;;;;;;;5.67;5.33;;;;;;;;5054220;28;45415;-69
2022/09/16 00:55:22;;;;;;;;;6.00;6.00;;;;;;;;5070007;28;45390;-69
2022/09/16 00:57:48;;;;;;;;;5.67;5.67;;;;;;;;5056824;28;45380;-69
2022/09/16 01:00:13;;;;;;;;;7.00;7.00;;;;;;;;5055420;28;45284;-69
2022/09/16 01:02:40;;;;;;;;;6.33;6.33;;;;;;;;5059727;28;45418;-69
2022/09/16 01:05:10;;;;;;;;;10.00;7.33;;;;;;;;5061091;28;45386;-69
2022/09/16 01:07:41;;;;;;;;;10.67;9.00;;;;;;;;5055227;28;45523;-69
2022/09/16 01:10:06;;;;;;;;;7.00;6.00;;;;;;;;5052630;28;45251;-69
2022/09/16 01:12:32;;;;;;;;;8.00;6.00;;;;;;;;5058765;28;45269;-69
2022/09/16 01:14:58;;;;;;;;;6.67;6.00;;;;;;;;5056487;28;45367;-69
2022/09/16 01:17:32;;;;;;;;;7.33;5.67;;;;;;;;5072218;28;45369;-70
2022/09/16 01:20:04;;;;;;;;;6.00;6.00;;;;;;;;5074005;28;47130;-69
2022/09/16 01:22:29;;;;;;;;;6.33;6.33;;;;;;;;5057725;28;45253;-69
2022/09/16 01:25:13;;;;;;;;;6.75;6.00;;;;;;;;5062215;28;45429;-69
2022/09/16 01:27:38;;;;;;;;;8.00;8.00;;;;;;;;5051121;28;47154;-69
2022/09/16 01:30:14;;;;;;;;;7.25;6.50;;;;;;;;5046508;28;46119;-69
2022/09/16 01:32:39;;;;;;;;;8.67;6.67;;;;;;;;5043464;28;45344;-69
2022/09/16 01:35:10;;;;;;;;;7.33;7.33;;;;;;;;5051962;28;45610;-69
2022/09/16 01:37:49;;;;;;;;;6.67;6.67;;;;;;;;5053819;28;45466;-69
2022/09/16 01:40:27;;;;;;;;;6.67;6.67;;;;;;;;5054531;28;45369;-69
2022/09/16 01:43:14;;;;;;;;;6.33;6.33;;;;;;;;5048402;28;45966;-69
2022/09/16 01:46:14;;;;;;;;;6.67;6.67;;;;;;;;5048764;28;45238;-69
2022/09/16 01:48:40;;;;;;;;;6.67;6.33;;;;;;;;4976632;28;45917;-69
2022/09/16 01:51:27;;;;;;;;;7.00;6.33;;;;;;;;5042843;28;46285;-69
2022/09/16 01:54:11;;;;;;;;;11.33;8.00;;;;;;;;5050557;28;45322;-69
2022/09/16 01:56:40;;;;;;;;;8.00;7.00;;;;;;;;5057524;28;45392;-69
2022/09/16 01:59:11;;;;;;;;;7.00;7.00;;;;;;;;5057101;28;45344;-69
2022/09/16 02:01:42;;;;;;;;;8.00;8.00;;;;;;;;5056325;28;46164;-69
2022/09/16 02:04:11;;;;;;;;;8.00;8.00;;;;;;;;5053695;28;45465;-69
2022/09/16 02:06:38;;;;;;;;;9.00;8.00;;;;;;;;5047121;28;45522;-69
2022/09/16 02:09:05;;;;;;;;;9.67;8.00;;;;;;;;5049103;28;45528;-69
2022/09/16 02:11:30;;;;;;;;;13.33;8.00;;;;;;;;5057522;28;45473;-69
2022/09/16 02:14:12;;;;;;;;;9.33;6.33;;;;;;;;5057694;28;45441;-69
2022/09/16 02:16:40;;;;;;;;;9.33;9.00;;;;;;;;5072520;28;45418;-69
2022/09/16 02:19:09;;;;;;;;;10.67;9.00;;;;;;;;5057609;28;45338;-69
2022/09/16 02:21:37;;;;;;;;;10.00;8.00;;;;;;;;5056857;28;45465;-69
2022/09/16 02:24:04;;;;;;;;;8.50;8.50;;;;;;;;5057323;28;45241;-69
2022/09/16 02:26:32;;;;;;;;;7.00;7.00;;;;;;;;5044973;28;45376;-69
2022/09/16 02:28:59;;;;;;;;;9.33;9.00;;;;;;;;5048051;28;45322;-69
2022/09/16 02:31:29;;;;;;;;;10.67;10.00;;;;;;;;5059135;28;45423;-69
2022/09/16 02:34:03;;;;;;;;;11.67;9.33;;;;;;;;5046685;28;45241;-69
2022/09/16 02:36:29;;;;;;;;;11.00;10.00;;;;;;;;5052189;28;45398;-69
2022/09/16 02:38:59;;;;;;;;;9.67;9.33;;;;;;;;5046735;28;45489;-69
2022/09/16 02:41:24;;;;;;;;;10.33;10.33;;;;;;;;5049864;28;45446;-69
2022/09/16 02:43:49;;;;;;;;;8.33;7.33;;;;;;;;5048384;28;45380;-69
2022/09/16 02:46:24;;;;;;;;;12.00;11.00;;;;;;;;5071697;28;45259;-69
2022/09/16 02:48:56;;;;;;;;;10.00;10.00;;;;;;;;5048133;28;45416;-69
2022/09/16 02:51:27;;;;;;;;;13.33;11.00;;;;;;;;5058232;28;46265;-69
2022/09/16 02:53:59;;;;;;;;;10.00;9.33;;;;;;;;5052337;28;45438;-69
2022/09/16 02:56:32;;;;;;;;;10.00;9.67;;;;;;;;5055071;28;45297;-68
2022/09/16 02:58:57;;;;;;;;;10.33;10.00;;;;;;;;5056978;28;45336;-68
2022/09/16 03:01:23;;;;;;;;;9.67;9.33;;;;;;;;5055056;28;46340;-68
2022/09/16 03:03:49;;;;;;;;;9.67;8.33;;;;;;;;5052543;28;45277;-69
2022/09/16 03:06:16;;;;;;;;;15.33;13.33;;;;;;;;5056036;28;45320;-68
2022/09/16 03:08:43;;;;;;;;;10.00;9.00;;;;;;;;5052796;28;45335;-68
2022/09/16 03:11:28;;;;;;;;;11.33;10.00;;;;;;;;5055940;28;45223;-69
2022/09/16 03:13:57;;;;;;;;;9.00;8.33;;;;;;;;5049873;28;45232;-68
2022/09/16 03:16:33;;;;;;;;;10.00;10.00;;;;;;;;5057645;28;45358;-69
2022/09/16 03:19:03;;;;;;;;;13.00;11.67;;;;;;;;5056718;28;45729;-68
2022/09/16 03:21:36;;;;;;;;;17.33;13.67;;;;;;;;5044805;28;47650;-68
2022/09/16 03:24:08;;;;;;;;;16.00;13.33;;;;;;;;5046919;28;45405;-69
2022/09/16 03:26:41;;;;;;;;;11.00;10.00;;;;;;;;5045023;28;45285;-68
2022/09/16 03:29:11;;;;;;;;;9.33;9.00;;;;;;;;5048304;28;45349;-68
2022/09/16 03:31:49;;;;;;;;;10.00;9.00;;;;;;;;5057490;28;45221;-68
2022/09/16 03:34:33;;;;;;;;;13.67;10.67;;;;;;;;5055525;28;46972;-68
2022/09/16 03:37:02;;;;;;;;;10.33;10.33;;;;;;;;5052969;28;45345;-68
2022/09/16 03:39:27;;;;;;;;;12.33;9.67;;;;;;;;5050759;28;45251;-68
2022/09/16 03:41:54;;;;;;;;;9.00;9.00;;;;;;;;5049023;28;46280;-68
2022/09/16 03:44:19;;;;;;;;;10.33;9.00;;;;;;;;5046466;28;45407;-68
2022/09/16 03:46:44;;;;;;;;;12.00;11.33;;;;;;;;5050096;28;45543;-68
2022/09/16 03:49:10;;;;;;;;;7.67;7.67;;;;;;;;5049680;28;45636;-68
2022/09/16 03:51:35;;;;;;;;;10.00;9.33;;;;;;;;5051151;27;45458;-68
2022/09/16 03:54:00;;;;;;;;;11.00;10.67;;;;;;;;5066944;28;45252;-68
2022/09/16 03:56:25;;;;;;;;;9.67;8.33;;;;;;;;5054429;28;45364;-68
2022/09/16 03:58:51;;;;;;;;;11.00;8.00;;;;;;;;5051564;28;45319;-68
2022/09/16 04:01:16;;;;;;;;;9.00;9.00;;;;;;;;5057459;28;45511;-68
2022/09/16 04:03:41;;;;;;;;;13.00;10.00;;;;;;;;5052549;28;45262;-68
2022/09/16 04:06:08;;;;;;;;;11.00;9.67;;;;;;;;5063185;28;45274;-68
2022/09/16 04:08:33;;;;;;;;;10.33;9.33;;;;;;;;5051044;28;45903;-68
2022/09/16 04:11:00;;;;;;;;;8.00;8.00;;;;;;;;5055575;28;46386;-68
2022/09/16 04:13:28;;;;;;;;;8.67;7.00;;;;;;;;5053173;28;45399;-68
2022/09/16 04:15:53;;;;;;;;;11.00;8.33;;;;;;;;5084081;27;45321;-68
2022/09/16 04:18:18;;;;;;;;;12.00;10.00;;;;;;;;5048040;28;45359;-68
2022/09/16 04:20:43;;;;;;;;;8.33;8.33;;;;;;;;5053928;28;46287;-68
2022/09/16 04:23:09;;;;;;;;;11.00;11.00;;;;;;;;5051383;28;45408;-68
2022/09/16 04:25:34;;;;;;;;;9.00;9.00;;;;;;;;5061960;28;45307;-68
2022/09/16 04:27:59;;;;;;;;;9.00;9.00;;;;;;;;5058264;28;45520;-69
2022/09/16 04:30:24;;;;;;;;;10.00;10.00;;;;;;;;5052801;28;45311;-68
2022/09/16 04:32:53;;;;;;;;;13.67;10.00;;;;;;;;5058587;28;45474;-68
2022/09/16 04:35:18;;;;;;;;;6.00;6.00;;;;;;;;5056671;28;45277;-68
2022/09/16 04:37:43;;;;;;;;;11.00;9.00;;;;;;;;5058833;28;45457;-69
2022/09/16 04:40:09;;;;;;;;;9.00;9.00;;;;;;;;5056675;28;45278;-68
2022/09/16 04:42:34;;;;;;;;;11.67;10.00;;;;;;;;5080435;27;45525;-69
2022/09/16 04:44:59;;;;;;;;;13.33;12.33;;;;;;;;5054902;28;45267;-70
2022/09/16 04:47:24;;;;;;;;;12.33;11.00;;;;;;;;5051038;28;45277;-70
2022/09/16 04:49:50;;;;;;;;;10.67;9.00;;;;;;;;5054236;28;45478;-70
2022/09/16 04:52:15;;;;;;;;;11.50;10.00;;;;;;;;5053433;28;45395;-70
2022/09/16 04:54:40;;;;;;;;;12.00;10.00;;;;;;;;5072885;28;45717;-70
2022/09/16 04:57:05;;;;;;;;;10.00;10.00;;;;;;;;5061021;28;45500;-70
2022/09/16 04:59:30;;;;;;;;;11.67;11.33;;;;;;;;5051000;28;45531;-70
2022/09/16 05:01:56;;;;;;;;;13.33;10.67;;;;;;;;5054140;28;45253;-70
2022/09/16 05:04:21;;;;;;;;;11.33;10.67;;;;;;;;5055811;28;45429;-70
2022/09/16 05:06:46;;;;;;;;;11.00;10.00;;;;;;;;5048748;28;45376;-70
2022/09/16 05:09:12;;;;;;;;;11.33;8.33;;;;;;;;5046415;28;45360;-70
2022/09/16 05:11:38;;;;;;;;;10.33;9.00;;;;;;;;5091460;27;45296;-70
2022/09/16 05:14:05;;;;;;;;;10.00;9.33;;;;;;;;5051382;28;45454;-70
2022/09/16 05:16:31;;;;;;;;;12.00;12.00;;;;;;;;5050037;28;45490;-70
2022/09/16 05:18:57;;;;;;;;;11.00;11.00;;;;;;;;5068027;28;47239;-68
2022/09/16 05:21:24;;;;;;;;;10.67;10.67;;;;;;;;5050995;28;45372;-70
2022/09/16 05:23:49;;;;;;;;;11.67;11.00;;;;;;;;5053857;28;45375;-70
2022/09/16 05:26:17;;;;;;;;;10.00;10.00;;;;;;;;5070009;28;45696;-71
2022/09/16 05:28:42;;;;;;;;;8.67;7.00;;;;;;;;5058352;28;45506;-70
2022/09/16 05:31:08;;;;;;;;;10.67;10.67;;;;;;;;5057266;28;45281;-70
2022/09/16 05:33:34;;;;;;;;;12.33;10.67;;;;;;;;5052598;28;45289;-68
2022/09/16 05:36:06;;;;;;;;;16.67;11.00;;;;;;;;5060211;28;45278;-71
2022/09/16 05:38:31;;;;;;;;;14.00;12.25;;;;;;;;5047343;28;45521;-70
2022/09/16 05:40:57;;;;;;;;;11.33;11.33;;;;;;;;5048450;28;45419;-68
2022/09/16 05:43:22;;;;;;;;;17.00;14.33;;;;;;;;5056882;28;45395;-68
2022/09/16 05:45:51;;;;;;;;;14.00;12.00;;;;;;;;5050919;28;45441;-68
2022/09/16 05:48:16;;;;;;;;;12.67;11.33;;;;;;;;5049475;28;46216;-68
2022/09/16 05:50:49;;;;;;;;;10.67;10.67;;;;;;;;5054857;28;45296;-70
2022/09/16 05:53:14;;;;;;;;;13.33;11.00;;;;;;;;5051707;28;45448;-69
2022/09/16 05:55:39;;;;;;;;;13.67;10.67;;;;;;;;5055916;28;45381;-69
2022/09/16 05:58:04;;;;;;;;;14.33;12.67;;;;;;;;5056511;28;45599;-68
2022/09/16 06:00:29;;;;;;;;;14.33;12.33;;;;;;;;5060317;28;45347;-68
2022/09/16 06:02:55;;;;;;;;;15.00;12.67;;;;;;;;5054820;28;45390;-69
2022/09/16 06:05:20;;;;;;;;;16.67;13.00;;;;;;;;5051624;28;45434;-71
2022/09/16 06:07:46;;;;;;;;;12.00;11.33;;;;;;;;5051943;28;45276;-69
2022/09/16 06:10:11;;;;;;;;;10.67;10.67;;;;;;;;5057782;28;45156;-71
2022/09/16 06:12:36;;;;;;;;;15.67;12.67;;;;;;;;5055682;28;45164;-70
2022/09/16 06:15:02;;;;;;;;;12.33;11.67;;;;;;;;5058314;28;45170;-67
2022/09/16 06:17:27;;;;;;;;;15.00;11.67;;;;;;;;5074363;28;47095;-71
2022/09/16 06:19:52;;;;;;;;;14.00;14.00;;;;;;;;5047248;28;45374;-70
2022/09/16 06:22:17;;;;;;;;;11.33;11.33;;;;;;;;5041372;28;45142;-70
2022/09/16 06:24:42;;;;;;;;;17.67;14.00;;;;;;;;5052924;28;45208;-70
2022/09/16 06:27:07;;;;;;;;;15.00;12.33;;;;;;;;5043282;28;45588;-68
2022/09/16 06:29:33;;;;;;;;;14.33;11.67;;;;;;;;5052444;28;45698;-68
2022/09/16 06:31:58;;;;;;;;;14.33;12.33;;;;;;;;5092971;27;45324;-67
2022/09/16 06:34:23;;;;;;;;;13.33;12.33;;;;;;;;5050677;28;45668;-68
2022/09/16 06:36:49;;;;;;;;;17.00;14.33;;;;;;;;5050534;28;46976;-70
2022/09/16 06:39:14;;;;;;;;;17.00;13.33;;;;;;;;5050365;28;45413;-70
2022/09/16 06:41:40;;;;;;;;;19.67;16.00;;;;;;;;5055484;28;45362;-69
2022/09/16 06:44:05;;;;;;;;;13.00;12.00;;;;;;;;5043837;28;45573;-69
2022/09/16 06:46:30;;;;;;;;;11.67;11.67;;;;;;;;5054625;28;46314;-69
2022/09/16 06:48:56;;;;;;;;;14.67;13.67;;;;;;;;5064442;28;45520;-69
2022/09/16 06:51:23;;;;;;;;;15.33;13.00;;;;;;;;5054300;28;45462;-69
2022/09/16 06:53:49;;;;;;;;;13.00;11.67;;;;;;;;5052698;28;45401;-69
2022/09/16 06:56:15;;;;;;;;;14.67;13.67;;;;;;;;5063667;28;48263;-70
2022/09/16 06:58:41;;;;;;;;;15.67;13.00;;;;;;;;5048153;28;45609;-69
2022/09/16 07:01:11;;;;;;;;;14.00;11.33;;;;;;;;5050893;28;45185;-69
2022/09/16 07:03:41;;;;;;;;;15.00;14.33;;;;;;;;5048917;28;45692;-69
2022/09/16 07:06:06;;;;;;;;;17.67;14.33;;;;;;;;5085152;27;45567;-70
2022/09/16 07:08:32;;;;;;;;;16.00;12.33;;;;;;;;5055139;28;45467;-69
2022/09/16 07:10:58;;;;;;;;;13.67;13.67;;;;;;;;5058428;28;45303;-69
2022/09/16 07:13:24;;;;;;;;;16.33;13.67;;;;;;;;5056360;28;45679;-69
2022/09/16 07:15:49;;;;;;;;;12.00;11.00;;;;;;;;5058281;28;45318;-69
2022/09/16 07:18:14;;;;;;;;;16.00;14.67;;;;;;;;5056034;28;45238;-70
2022/09/16 07:20:39;;;;;;;;;10.00;10.00;;;;;;;;5058523;28;45279;-69
2022/09/16 07:23:05;;;;;;;;;18.67;15.00;;;;;;;;5055564;28;45265;-70
2022/09/16 07:25:31;;;;;;;;;19.33;17.33;;;;;;;;5058158;28;45902;-70
2022/09/16 07:27:56;;;;;;;;;18.00;15.00;;;;;;;;5056404;28;45659;-70
2022/09/16 07:30:21;;;;;;;;;16.33;14.33;;;;;;;;5058425;28;45479;-70
2022/09/16 07:32:47;;;;;;;;;19.33;15.33;;;;;;;;5056206;28;45426;-70
2022/09/16 07:35:12;;;;;;;;;14.67;14.67;;;;;;;;5058207;28;45522;-70
2022/09/16 07:37:37;;;;;;;;;15.00;13.33;;;;;;;;5057102;28;45418;-72
2022/09/16 07:40:03;;;;;;;;;16.00;14.33;;;;;;;;5057396;28;45509;-70
2022/09/16 07:42:28;;;;;;;;;13.33;13.33;;;;;;;;5056490;28;45392;-70
2022/09/16 07:44:53;;;;;;;;;15.33;13.00;;;;;;;;5056488;28;45342;-69
2022/09/16 07:47:19;;;;;;;;;13.00;12.00;;;;;;;;5059821;28;45563;-70
2022/09/16 07:49:44;;;;;;;;;18.33;14.00;;;;;;;;5078514;28;45489;-71
2022/09/16 07:52:09;;;;;;;;;15.67;14.00;;;;;;;;5065432;27;45446;-70
2022/09/16 07:54:35;;;;;;;;;15.67;14.00;;;;;;;;5062516;28;45520;-71
2022/09/16 07:57:00;;;;;;;;;14.00;12.00;;;;;;;;5064622;28;45609;-69
2022/09/16 07:59:25;;;;;;;;;18.00;15.67;;;;;;;;5062996;28;45386;-70
2022/09/16 08:01:50;;;;;;;;;16.00;12.67;;;;;;;;5064400;28;45501;-70
2022/09/16 08:04:16;;;;;;;;;15.33;12.33;;;;;;;;5062315;28;46473;-70
2022/09/16 08:06:42;;;;;;;;;13.33;13.33;;;;;;;;5064171;28;45436;-70
2022/09/16 08:09:07;;;;;;;;;11.00;10.67;;;;;;;;5062496;28;45239;-70
2022/09/16 08:11:32;;;;;;;;;14.67;14.67;;;;;;;;5064414;28;45199;-70
2022/09/16 08:13:58;;;;;;;;;16.00;13.00;;;;;;;;5061625;28;45347;-70
2022/09/16 08:16:23;;;;;;;;;13.00;11.67;;;;;;;;5063158;28;45667;-70
2022/09/16 08:18:51;;;;;;;;;16.67;10.67;;;;;;;;5077937;28;45266;-71
2022/09/16 08:21:22;;;;;;;;;13.00;11.67;;;;;;;;5062497;28;46784;-70
2022/09/16 08:23:47;;;;;;;;;10.67;10.67;;;;;;;;5050478;28;48453;-70
2022/09/16 08:26:13;;;;;;;;;11.33;10.00;;;;;;;;5060037;28;45306;-70
2022/09/16 08:28:40;;;;;;;;;11.67;11.33;;;;;;;;5058715;28;45314;-70
2022/09/16 08:31:05;;;;;;;;;13.67;12.67;;;;;;;;5063354;28;45236;-70
2022/09/16 08:33:30;;;;;;;;;11.00;10.00;;;;;;;;5058607;28;45218;-70
2022/09/16 08:36:06;;;;;;;;;12.33;8.33;;;;;;;;5062280;28;45164;-71
2022/09/16 08:38:32;;;;;;;;;16.00;11.00;;;;;;;;5049275;28;45557;-71
2022/09/16 08:41:13;;;;;;;;;11.00;9.00;;;;;;;;5059084;28;45350;-70
2022/09/16 08:43:41;;;;;;;;;12.33;9.33;;;;;;;;5051125;28;45468;-69
2022/09/16 08:46:10;;;;;;;;;10.00;8.00;;;;;;;;5061451;28;45476;-68
2022/09/16 08:48:38;;;;;;;;;9.33;8.00;;;;;;;;5052263;28;45332;-69
2022/09/16 08:51:06;;;;;;;;;10.00;9.00;;;;;;;;5058801;28;45347;-69
2022/09/16 08:53:32;;;;;;;;;11.00;9.00;;;;;;;;5056018;28;45597;-69
2022/09/16 08:55:57;;;;;;;;;8.67;8.67;;;;;;;;5060396;28;45347;-70
2022/09/16 08:58:24;;;;;;;;;12.67;10.00;;;;;;;;5061950;28;45540;-69
2022/09/16 09:01:01;;;;;;;;;11.33;8.33;;;;;;;;5059617;28;45422;-68
2022/09/16 09:03:32;;;;;;;;;10.00;10.00;;;;;;;;5069794;28;47623;-69
2022/09/16 09:05:58;;;;;;;;;10.67;9.00;;;;;;;;5054440;28;45407;-69
2022/09/16 09:08:35;;;;;;;;;7.00;5.67;;;;;;;;5052526;28;45528;-69
2022/09/16 09:11:15;;;;;;;;;7.33;5.67;;;;;;;;5052516;28;45666;-69
2022/09/16 09:14:07;;;;;;;;;4.67;4.00;;;;;;;;5050853;28;45383;-70
2022/09/16 09:16:32;;;;;;;;;5.67;4.67;;;;;;;;5036244;28;45315;-69
2022/09/16 09:19:03;;;;;;;;;5.00;3.33;;;;;;;;5058354;28;45519;-69
2022/09/16 09:21:34;;;;;;;;;5.33;4.33;;;;;;;;5059537;28;45345;-69
2022/09/16 09:24:06;;;;;;;;;4.00;3.00;;;;;;;;5050167;28;45670;-69
2022/09/16 09:26:34;;;;;;;;;5.00;2.67;;;;;;;;5051072;28;45618;-69
2022/09/16 09:29:18;;;;;;;;;4.00;3.00;;;;;;;;5048923;28;45457;-69
2022/09/16 09:31:56;;;;;;;;;2.67;2.67;;;;;;;;5055832;28;45470;-69
2022/09/16 09:34:41;;;;;;;;;4.67;3.67;;;;;;;;5049992;28;45382;-69
2022/09/16 09:37:24;;;;;;;;;3.00;3.00;;;;;;;;5055620;28;45499;-69
2022/09/16 09:39:52;;;;;;;;;1.67;1.67;;;;;;;;5053712;28;45350;-69
2022/09/16 09:42:23;;;;;;;;;3.67;3.67;;;;;;;;5047149;28;45422;-70
2022/09/16 09:44:55;;;;;;;;;4.00;1.67;;;;;;;;5049297;28;45442;-69
2022/09/16 09:47:20;;;;;;;;;2.00;1.00;;;;;;;;5049187;28;45267;-70
2022/09/16 09:49:49;;;;;;;;;2.67;1.67;;;;;;;;5051224;28;45468;-70
2022/09/16 09:52:25;;;;;;;;;2.00;2.00;;;;;;;;5050775;28;45278;-69
2022/09/16 09:54:51;;;;;;;;;1.00;1.00;;;;;;;;5053255;28;45261;-70
2022/09/16 09:57:16;;;;;;;;;2.00;0.67;;;;;;;;5052777;28;45445;-69
2022/09/16 10:00:00;;;;;;;;;1.33;0.67;;;;;;;;5052004;28;45450;-69
2022/09/16 10:02:25;;;;;;;;;2.00;1.67;;;;;;;;5053850;28;45782;-70
2022/09/16 10:04:50;;;;;;;;;0.67;0.67;;;;;;;;5056221;28;46322;-69
2022/09/16 10:07:23;;;;;;;;;3.00;0.67;;;;;;;;5051545;28;45338;-69
2022/09/16 10:09:51;;;;;;;;;0.00;0.00;;;;;;;;5051231;28;45484;-71
2022/09/16 10:12:25;;;;;;;;;4.33;1.00;;;;;;;;5052380;28;45500;-69
2022/09/16 10:14:50;;;;;;;;;1.00;0.33;;;;;;;;5052846;28;45465;-70
2022/09/16 10:17:16;;;;;;;;;1.50;1.00;;;;;;;;5059770;28;45316;-69
2022/09/16 10:19:52;;;;;;;;;1.00;1.00;;;;;;;;5049117;28;45381;-69
2022/09/16 10:22:23;;;;;;;;;3.00;1.33;;;;;;;;5050589;28;45510;-69
2022/09/16 10:24:53;;;;;;;;;1.50;0.00;;;;;;;;5055978;28;45517;-69
2022/09/16 10:27:39;;;;;;;;;1.33;1.33;;;;;;;;5056365;28;45328;-70
2022/09/16 10:30:14;;;;;;;;;1.00;1.00;;;;;;;;5049262;28;45373;-70
2022/09/16 10:32:58;;;;;;;;;1.75;1.75;;;;;;;;5054032;28;45510;-70
2022/09/16 10:35:25;;;;;;;;;1.00;1.00;;;;;;;;5048582;28;46812;-70
2022/09/16 10:37:55;;;;;;;;;1.00;1.00;;;;;;;;5046082;28;45259;-70
2022/09/16 10:40:22;;;;;;;;;2.25;1.00;;;;;;;;5054774;28;45307;-69
2022/09/16 10:42:48;;;;;;;;;3.00;1.00;;;;;;;;5050937;28;45490;-69
2022/09/16 10:45:22;;;;;;;;;4.00;4.00;;;;;;;;5054749;28;45822;-71
2022/09/16 10:47:53;;;;;;;;;4.00;3.33;;;;;;;;5052381;28;45461;-71
2022/09/16 10:50:18;;;;;;;;;4.75;3.50;;;;;;;;5054869;28;45364;-69
2022/09/16 10:52:45;;;;;;;;;4.67;3.00;;;;;;;;5051002;28;45146;-69
2022/09/16 10:55:37;;;;;;;;;7.33;6.00;;;;;;;;5055725;28;46285;-70
2022/09/16 10:58:18;;;;;;;;;3.00;1.75;;;;;;;;5056726;28;45505;-71
2022/09/16 11:00:53;;;;;;;;;3.00;3.00;;;;;;;;5058894;28;45402;-70
2022/09/16 11:03:21;;;;;;;;;6.00;6.00;;;;;;;;5055764;28;45803;-70
2022/09/16 11:05:46;;;;;;;;;12.67;11.67;;;;;;;;5055646;28;46505;-70
2022/09/16 11:08:18;;;;;;;;;3.00;2.75;;;;;;;;5051914;28;45233;-70
2022/09/16 11:10:50;;;;;;;;;2.00;2.00;;;;;;;;5054788;28;45268;-69
2022/09/16 11:13:36;;;;;;;;;3.00;3.00;;;;;;;;5055239;28;45247;-70
2022/09/16 11:16:04;;;;;;;;;1.25;1.25;;;;;;;;5057580;28;45386;-69
2022/09/16 11:18:38;;;;;;;;;2.75;0.75;;;;;;;;5055201;28;45355;-69
2022/09/16 11:21:27;;;;;;;;;2.25;2.25;;;;;;;;5052495;28;45412;-70
2022/09/16 11:24:02;;;;;;;;;1.50;1.50;;;;;;;;5048721;28;45738;-71
2022/09/16 11:26:44;;;;;;;;;1.00;1.00;;;;;;;;5057241;28;45301;-70
2022/09/16 11:29:15;;;;;;;;;0.00;0.00;;;;;;;;5052772;28;45476;-72
2022/09/16 11:31:49;;;;;;;;;0.75;0.50;;;;;;;;5045611;28;45387;-68
2022/09/16 11:34:24;;;;;;;;;1.00;1.00;;;;;;;;5045931;28;45436;-69
2022/09/16 11:36:49;;;;;;;;;1.00;1.00;;;;;;;;5050020;28;45286;-70
2022/09/16 11:39:23;;;;;;;;;1.75;0.25;;;;;;;;5047585;28;45362;-68
2022/09/16 11:42:07;;;;;;;;;0.00;0.00;;;;;;;;5057012;28;45351;-68
2022/09/16 11:44:35;;;;;;;;;2.75;1.00;;;;;;;;5052012;28;45517;-71
2022/09/16 11:47:01;;;;;;;;;1.25;1.25;;;;;;;;5056296;28;45448;-70
2022/09/16 11:49:29;;;;;;;;;0.50;0.50;;;;;;;;5048537;28;45801;-71
2022/09/16 11:51:54;;;;;;;;;1.00;1.00;;;;;;;;5047638;28;45419;-71
2022/09/16 11:54:38;;;;;;;;;1.00;1.00;;;;;;;;5072192;27;47319;-71
2022/09/16 11:57:10;;;;;;;;;1.00;1.00;;;;;;;;5055870;28;45581;-71
2022/09/16 11:59:55;;;;;;;;;0.00;0.00;;;;;;;;5052315;28;45467;-70
2022/09/16 12:02:23;;;;;;;;;1.00;1.00;;;;;;;;5056656;28;45434;-70
2022/09/16 12:05:01;;;;;;;;;2.50;1.25;;;;;;;;5055803;28;45484;-70
2022/09/16 12:07:26;;;;;;;;;3.00;1.75;;;;;;;;5057969;28;45367;-70
2022/09/16 12:09:59;;;;;;;;;0.25;0.25;;;;;;;;5055854;28;45371;-71
2022/09/16 12:12:31;;;;;;;;;0.50;0.50;;;;;;;;5056513;28;45389;-70
2022/09/16 12:14:58;;;;;;;;;0.75;0.75;;;;;;;;5071497;27;46024;-70
2022/09/16 12:17:26;;;;;;;;;3.00;1.00;;;;;;;;5057918;28;45307;-69
2022/09/16 12:19:57;;;;;;;;;1.50;1.50;;;;;;;;5055252;28;45542;-71
2022/09/16 12:22:26;;;;;;;;;0.50;0.50;;;;;;;;5057539;28;45339;-70
2022/09/16 12:24:56;;;;;;;;;1.00;1.00;;;;;;;;5053504;28;45478;-69
2022/09/16 12:27:32;;;;;;;;;2.00;1.00;;;;;;;;5057481;28;45742;-69
2022/09/16 12:29:58;;;;;;;;;1.75;1.00;;;;;;;;5051937;28;45441;-70
2022/09/16 12:32:34;;;;;;;;;1.00;1.00;;;;;;;;5057981;28;45405;-70
2022/09/16 12:35:20;;;;;;;;;2.75;1.25;;;;;;;;5056412;28;45573;-70
2022/09/16 12:37:47;;;;;;;;;1.25;1.25;;;;;;;;5058703;28;45396;-70
2022/09/16 12:40:16;;;;;;;;;1.25;1.00;;;;;;;;5057652;28;45447;-70
2022/09/16 12:42:53;;;;;;;;;2.25;1.50;;;;;;;;5058088;28;45512;-71
2022/09/16 12:45:30;;;;;;;;;1.00;1.00;;;;;;;;5071861;28;45398;-70
2022/09/16 12:48:14;;;;;;;;;1.50;1.25;;;;;;;;5060983;28;46539;-71
2022/09/16 12:50:52;;;;;;;;;1.00;1.00;;;;;;;;5054867;28;45801;-70
2022/09/16 12:53:29;;;;;;;;;1.75;1.75;;;;;;;;5058701;28;45313;-70
2022/09/16 12:56:00;;;;;;;;;1.00;1.00;;;;;;;;5061008;28;45364;-69
2022/09/16 12:58:39;;;;;;;;;1.00;1.00;;;;;;;;5049302;28;46118;-69
2022/09/16 13:01:07;;;;;;;;;1.75;1.75;;;;;;;;5044265;28;45474;-69
2022/09/16 13:03:36;;;;;;;;;1.00;1.00;;;;;;;;5057717;28;45442;-69
2022/09/16 13:06:05;;;;;;;;;1.50;1.50;;;;;;;;5052504;28;46115;-69
2022/09/16 13:08:31;;;;;;;;;0.00;0.00;;;;;;;;5057386;28;46484;-70
2022/09/16 13:10:57;;;;;;;;;1.75;1.75;;;;;;;;5060340;28;45288;-70
2022/09/16 13:13:34;;;;;;;;;2.25;1.75;;;;;;;;5059111;28;45401;-70
2022/09/16 13:16:00;;;;;;;;;2.50;1.25;;;;;;;;5059550;28;45426;-70
2022/09/16 13:18:37;;;;;;;;;0.75;0.75;;;;;;;;5058427;28;46268;-70
2022/09/16 13:21:12;;;;;;;;;1.00;1.00;;;;;;;;5058768;28;45437;-69
2022/09/16 13:23:40;;;;;;;;;1.00;1.00;;;;;;;;5058220;28;45265;-69
2022/09/16 13:26:07;;;;;;;;;1.00;1.00;;;;;;;;5060347;28;45292;-70
2022/09/16 13:28:33;;;;;;;;;0.75;0.75;;;;;;;;5058659;28;46578;-69
2022/09/16 13:31:28;;;;;;;;;1.00;1.00;;;;;;;;5058087;28;45469;-70
2022/09/16 13:33:56;;;;;;;;;2.00;0.75;;;;;;;;5038581;28;45612;-69
2022/09/16 13:36:21;;;;;;;;;2.75;1.75;;;;;;;;5059700;28;45301;-70
2022/09/16 13:38:51;;;;;;;;;2.33;0.67;;;;;;;;5058640;28;45508;-70
2022/09/16 13:41:31;;;;;;;;;1.00;1.00;;;;;;;;5052721;28;45400;-69
2022/09/16 13:43:56;;;;;;;;;5.00;2.67;;;;;;;;5050589;28;45426;-71
2022/09/16 13:46:33;;;;;;;;;2.00;2.00;;;;;;;;5056205;28;45693;-70
2022/09/16 13:49:04;;;;;;;;;2.00;2.00;;;;;;;;5055536;28;46288;-70
2022/09/16 13:51:37;;;;;;;;;2.00;2.00;;;;;;;;5060251;28;45347;-70
2022/09/16 13:54:03;;;;;;;;;2.00;2.00;;;;;;;;5049871;28;45370;-69
2022/09/16 13:56:51;;;;;;;;;2.33;2.00;;;;;;;;5048111;28;45278;-71
2022/09/16 13:59:35;;;;;;;;;1.67;1.67;;;;;;;;5051385;28;45564;-71
2022/09/16 14:02:08;;;;;;;;;1.67;0.67;;;;;;;;5051386;28;45387;-71
2022/09/16 14:04:48;;;;;;;;;1.75;0.75;;;;;;;;5065619;28;45501;-71
2022/09/16 14:07:32;;;;;;;;;0.67;0.67;;;;;;;;5051066;28;45370;-72
2022/09/16 14:09:57;;;;;;;;;0.33;0.00;;;;;;;;5053084;28;47269;-71
2022/09/16 14:12:38;;;;;;;;;3.00;1.00;;;;;;;;5055219;28;45276;-71
2022/09/16 14:15:04;;;;;;;;;0.75;0.75;;;;;;;;5054007;28;45300;-71
2022/09/16 14:17:41;;;;;;;;;0.67;0.67;;;;;;;;5059537;28;45430;-71
2022/09/16 14:20:14;;;;;;;;;1.33;1.33;;;;;;;;5048454;28;46146;-71
2022/09/16 14:22:43;;;;;;;;;1.00;1.00;;;;;;;;5058603;28;45381;-71
2022/09/16 14:25:24;;;;;;;;;0.67;0.67;;;;;;;;5049809;28;45418;-71
2022/09/16 14:27:49;;;;;;;;;1.33;1.33;;;;;;;;5057510;28;45323;-71
2022/09/16 14:30:15;;;;;;;;;1.67;1.67;;;;;;;;5053424;28;46253;-71
2022/09/16 14:32:41;;;;;;;;;0.67;0.67;;;;;;;;5050721;28;45268;-71
2022/09/16 14:35:14;;;;;;;;;2.67;0.67;;;;;;;;5054421;28;45460;-71
2022/09/16 14:37:39;;;;;;;;;1.33;0.67;;;;;;;;5045944;28;45354;-71
2022/09/16 14:40:12;;;;;;;;;0.00;0.00;;;;;;;;5050085;28;45391;-71
2022/09/16 14:42:43;;;;;;;;;2.33;1.00;;;;;;;;5047986;28;45384;-71
2022/09/16 14:45:15;;;;;;;;;0.67;0.67;;;;;;;;5050459;28;45466;-71
2022/09/16 14:47:40;;;;;;;;;1.00;0.67;;;;;;;;5050070;28;45371;-71